createdAt,value
2018-12-06T00:00:45.814Z,4.34
2018-12-06T00:01:48.481Z,4.35
2018-12-06T00:02:51.686Z,4.33
2018-12-06T00:03:56.124Z,4.35
2018-12-06T00:04:58.853Z,4.39
2018-12-06T00:06:06.813Z,4.37
2018-12-06T00:07:10.190Z,4.36
2018-12-06T00:08:12.765Z,4.33
2018-12-06T00:09:15.376Z,4.32
2018-12-06T00:10:17.949Z,4.33
2018-12-06T00:11:20.573Z,4.34
2018-12-06T00:12:23.204Z,4.36
2018-12-06T00:13:26.122Z,4.34
2018-12-06T00:14:28.704Z,4.35
2018-12-06T00:15:31.637Z,4.37
2018-12-06T00:16:34.196Z,4.39
2018-12-06T00:17:36.745Z,4.43
2018-12-06T00:18:39.349Z,4.42
2018-12-06T00:19:42.209Z,4.42
2018-12-06T00:20:45.828Z,4.43
2018-12-06T00:21:49.066Z,4.45
2018-12-06T00:22:52.702Z,4.47
2018-12-06T00:23:55.306Z,4.48
2018-12-06T00:24:57.933Z,4.49
2018-12-06T00:26:00.959Z,4.48
2018-12-06T00:27:04.053Z,4.46
2018-12-06T00:28:06.648Z,4.45
2018-12-06T00:29:09.339Z,4.47
2018-12-06T00:30:12.566Z,4.48
2018-12-06T00:31:17.054Z,4.47
2018-12-06T00:32:19.941Z,4.46
2018-12-06T00:33:22.538Z,4.44
2018-12-06T00:34:25.119Z,4.43
2018-12-06T00:35:28.733Z,4.41
2018-12-06T00:36:31.801Z,4.40
2018-12-06T00:37:34.476Z,4.39
2018-12-06T00:38:38.275Z,4.38
2018-12-06T00:39:40.885Z,4.35
2018-12-06T00:40:43.562Z,4.37
2018-12-06T00:41:46.123Z,4.40
2018-12-06T00:42:48.751Z,4.41
2018-12-06T00:43:51.390Z,4.44
2018-12-06T00:44:54.480Z,4.43
2018-12-06T00:45:57.146Z,4.43
2018-12-06T00:46:59.706Z,4.42
2018-12-06T00:48:02.305Z,4.42
2018-12-06T00:49:05.899Z,4.42
2018-12-06T00:50:09.260Z,4.44
2018-12-06T00:51:13.406Z,4.44
2018-12-06T00:52:16.379Z,4.44
2018-12-06T00:53:18.980Z,4.44
2018-12-06T00:54:21.673Z,4.44
2018-12-06T00:55:24.232Z,4.43
2018-12-06T00:56:26.792Z,4.45
2018-12-06T00:57:29.812Z,4.44
2018-12-06T00:58:32.661Z,4.48
2018-12-06T00:59:35.231Z,4.48
2018-12-06T01:00:38.773Z,4.49
2018-12-06T01:01:41.380Z,4.50
2018-12-06T01:02:43.973Z,4.50
2018-12-06T01:03:46.972Z,4.49
2018-12-06T01:04:49.580Z,4.50
2018-12-06T01:05:52.156Z,4.50
2018-12-06T01:06:54.767Z,4.50
2018-12-06T01:07:57.358Z,4.48
2018-12-06T01:08:59.960Z,4.49
2018-12-06T01:10:03.047Z,4.47
2018-12-06T01:11:05.677Z,4.48
2018-12-06T01:12:08.294Z,4.48
2018-12-06T01:13:10.913Z,4.48
2018-12-06T01:14:13.511Z,4.44
2018-12-06T01:15:16.121Z,4.45
2018-12-06T01:16:19.015Z,4.42
2018-12-06T01:17:21.630Z,4.43
2018-12-06T01:18:24.254Z,4.44
2018-12-06T01:19:26.883Z,4.45
2018-12-06T01:20:29.467Z,4.44
2018-12-06T01:21:32.050Z,4.43
2018-12-06T01:22:35.045Z,4.41
2018-12-06T01:23:37.627Z,4.40
2018-12-06T01:24:41.073Z,4.39
2018-12-06T01:25:43.691Z,4.40
2018-12-06T01:26:46.266Z,4.42
2018-12-06T01:27:48.832Z,4.45
2018-12-06T01:28:51.832Z,4.45
2018-12-06T01:29:54.390Z,4.46
2018-12-06T01:30:56.997Z,4.49
2018-12-06T01:31:59.553Z,4.51
2018-12-06T01:33:02.128Z,4.52
2018-12-06T01:34:04.700Z,4.53
2018-12-06T01:35:07.659Z,4.57
2018-12-06T01:36:10.233Z,4.50
2018-12-06T01:37:12.841Z,4.51
2018-12-06T01:38:15.492Z,4.50
2018-12-06T01:39:18.085Z,4.52
2018-12-06T01:40:20.665Z,4.52
2018-12-06T01:41:23.664Z,4.50
2018-12-06T01:42:26.302Z,4.52
2018-12-06T01:43:28.846Z,4.54
2018-12-06T01:44:31.508Z,4.53
2018-12-06T01:45:34.166Z,4.54
2018-12-06T01:46:37.298Z,4.54
2018-12-06T01:47:40.169Z,4.53
2018-12-06T01:48:42.759Z,4.53
2018-12-06T01:49:45.308Z,4.49
2018-12-06T01:50:47.908Z,4.49
2018-12-06T01:51:50.603Z,4.51
2018-12-06T01:52:53.297Z,4.50
2018-12-06T01:53:56.279Z,4.51
2018-12-06T01:54:58.892Z,4.50
2018-12-06T01:56:01.471Z,4.49
2018-12-06T01:57:04.124Z,4.46
2018-12-06T01:58:07.761Z,4.45
2018-12-06T01:59:10.375Z,4.42
2018-12-06T02:00:13.530Z,4.41
2018-12-06T02:01:16.096Z,4.40
2018-12-06T02:02:18.698Z,4.38
2018-12-06T02:03:24.030Z,4.38
2018-12-06T02:04:26.610Z,4.38
2018-12-06T02:05:34.354Z,4.38
2018-12-06T02:06:37.317Z,4.37
2018-12-06T02:07:39.887Z,4.40
2018-12-06T02:08:42.487Z,4.41
2018-12-06T02:09:45.056Z,4.38
2018-12-06T02:10:47.676Z,4.39
2018-12-06T02:11:50.238Z,4.40
2018-12-06T02:12:53.173Z,4.40
2018-12-06T02:13:55.811Z,4.40
2018-12-06T02:14:58.447Z,4.42
2018-12-06T02:16:01.074Z,4.45
2018-12-06T02:17:03.651Z,4.45
2018-12-06T02:18:06.216Z,4.45
2018-12-06T02:19:09.814Z,4.43
2018-12-06T02:20:12.461Z,4.46
2018-12-06T02:21:15.066Z,4.47
2018-12-06T02:22:18.295Z,4.44
2018-12-06T02:23:21.008Z,4.46
2018-12-06T02:24:23.600Z,4.49
2018-12-06T02:25:26.605Z,4.49
2018-12-06T02:26:29.203Z,4.51
2018-12-06T02:27:31.765Z,4.54
2018-12-06T02:28:34.393Z,4.53
2018-12-06T02:29:41.997Z,4.54
2018-12-06T02:30:44.571Z,4.53
2018-12-06T02:31:47.535Z,4.55
2018-12-06T02:32:50.082Z,4.55
2018-12-06T02:33:52.669Z,4.57
2018-12-06T02:34:55.260Z,4.55
2018-12-06T02:35:57.911Z,4.56
2018-12-06T02:37:00.478Z,4.58
2018-12-06T02:38:03.497Z,4.56
2018-12-06T02:39:06.050Z,4.57
2018-12-06T02:40:08.591Z,4.58
2018-12-06T02:41:11.221Z,4.60
2018-12-06T02:42:13.785Z,4.61
2018-12-06T02:43:16.455Z,4.58
2018-12-06T02:44:19.557Z,4.55
2018-12-06T02:45:22.133Z,4.55
2018-12-06T02:46:24.724Z,4.54
2018-12-06T02:47:27.328Z,4.54
2018-12-06T02:48:29.925Z,4.54
2018-12-06T02:49:32.517Z,4.51
2018-12-06T02:50:35.583Z,4.51
2018-12-06T02:51:38.713Z,4.54
2018-12-06T02:52:41.754Z,4.53
2018-12-06T02:53:44.349Z,4.52
2018-12-06T02:54:46.912Z,4.51
2018-12-06T02:55:49.496Z,4.53
2018-12-06T02:56:52.588Z,4.54
2018-12-06T02:57:55.181Z,4.53
2018-12-06T02:58:57.759Z,4.55
2018-12-06T03:00:00.357Z,4.51
2018-12-06T03:01:02.992Z,4.52
2018-12-06T03:02:05.604Z,4.51
2018-12-06T03:03:08.618Z,4.51
2018-12-06T03:04:11.220Z,4.52
2018-12-06T03:05:13.791Z,4.52
2018-12-06T03:06:16.408Z,4.52
2018-12-06T03:07:19.204Z,4.53
2018-12-06T03:08:22.047Z,4.54
2018-12-06T03:09:25.098Z,4.54
2018-12-06T03:10:27.764Z,4.58
2018-12-06T03:11:30.368Z,4.58
2018-12-06T03:12:33.046Z,4.63
2018-12-06T03:13:35.645Z,4.62
2018-12-06T03:14:38.199Z,4.61
2018-12-06T03:15:41.135Z,4.63
2018-12-06T03:16:43.775Z,4.65
2018-12-06T03:17:46.375Z,4.67
2018-12-06T03:18:48.977Z,4.67
2018-12-06T03:19:51.556Z,4.68
2018-12-06T03:20:54.211Z,4.69
2018-12-06T03:21:57.092Z,4.70
2018-12-06T03:22:59.676Z,4.72
2018-12-06T03:24:02.298Z,4.73
2018-12-06T03:25:04.896Z,4.72
2018-12-06T03:26:07.532Z,4.68
2018-12-06T03:27:10.093Z,4.71
2018-12-06T03:28:12.958Z,4.71
2018-12-06T03:29:15.511Z,4.76
2018-12-06T03:30:18.138Z,4.78
2018-12-06T03:31:20.751Z,4.80
2018-12-06T03:32:23.366Z,4.80
2018-12-06T03:33:25.956Z,4.80
2018-12-06T03:34:28.816Z,4.79
2018-12-06T03:35:31.383Z,4.79
2018-12-06T03:36:33.984Z,4.80
2018-12-06T03:37:36.610Z,4.81
2018-12-06T03:38:39.200Z,4.82
2018-12-06T03:39:41.775Z,4.83
2018-12-06T03:40:44.400Z,4.85
2018-12-06T03:41:46.988Z,4.85
2018-12-06T03:42:49.545Z,4.86
2018-12-06T03:43:52.177Z,4.89
2018-12-06T03:44:57.833Z,4.88
2018-12-06T03:46:00.516Z,4.90
2018-12-06T03:47:03.243Z,4.90
2018-12-06T03:48:05.848Z,4.90
2018-12-06T03:49:08.408Z,4.89
2018-12-06T03:50:11.004Z,4.89
2018-12-06T03:51:13.562Z,4.93
2018-12-06T03:52:16.215Z,4.93
2018-12-06T03:53:19.088Z,4.93
2018-12-06T03:54:21.733Z,4.91
2018-12-06T03:55:24.295Z,4.94
2018-12-06T03:56:26.866Z,4.93
2018-12-06T03:57:29.452Z,4.93
2018-12-06T03:58:32.066Z,4.93
2018-12-06T03:59:35.086Z,4.95
2018-12-06T04:00:37.648Z,4.96
2018-12-06T04:01:40.286Z,4.94
2018-12-06T04:02:42.933Z,4.95
2018-12-06T04:03:45.581Z,4.96
2018-12-06T04:04:48.134Z,4.96
2018-12-06T04:05:51.024Z,4.97
2018-12-06T04:06:53.576Z,4.98
2018-12-06T04:07:56.152Z,5.00
2018-12-06T04:08:58.730Z,4.98
2018-12-06T04:10:01.695Z,4.98
2018-12-06T04:11:04.518Z,5.01
2018-12-06T04:12:07.535Z,5.02
2018-12-06T04:13:10.229Z,5.05
2018-12-06T04:14:12.960Z,5.02
2018-12-06T04:15:15.598Z,5.03
2018-12-06T04:16:18.202Z,5.05
2018-12-06T04:17:20.834Z,5.05
2018-12-06T04:18:23.751Z,5.04
2018-12-06T04:19:26.372Z,5.05
2018-12-06T04:20:28.972Z,5.05
2018-12-06T04:21:31.538Z,5.03
2018-12-06T04:22:34.144Z,5.06
2018-12-06T04:23:36.814Z,5.05
2018-12-06T04:24:39.742Z,5.07
2018-12-06T04:25:42.417Z,5.07
2018-12-06T04:26:45.170Z,5.07
2018-12-06T04:27:47.775Z,5.09
2018-12-06T04:28:50.788Z,5.09
2018-12-06T04:29:53.386Z,5.10
2018-12-06T04:30:57.297Z,5.11
2018-12-06T04:31:59.941Z,5.12
2018-12-06T04:33:02.554Z,5.13
2018-12-06T04:34:05.251Z,5.10
2018-12-06T04:35:07.886Z,5.08
2018-12-06T04:36:10.461Z,5.06
2018-12-06T04:37:14.079Z,5.04
2018-12-06T04:38:16.736Z,5.02
2018-12-06T04:39:19.366Z,5.03
2018-12-06T04:40:21.975Z,5.02
2018-12-06T04:41:27.766Z,5.03
2018-12-06T04:42:30.657Z,5.01
2018-12-06T04:43:33.289Z,5.01
2018-12-06T04:44:35.940Z,5.03
2018-12-06T04:45:38.567Z,5.03
2018-12-06T04:46:41.217Z,5.03
2018-12-06T04:47:43.889Z,5.04
2018-12-06T04:48:47.108Z,5.05
2018-12-06T04:49:49.785Z,5.05
2018-12-06T04:50:52.419Z,5.07
2018-12-06T04:51:55.112Z,5.08
2018-12-06T04:52:57.765Z,5.07
2018-12-06T04:54:00.427Z,5.07
2018-12-06T04:55:03.054Z,5.07
2018-12-06T04:56:08.700Z,5.09
2018-12-06T04:57:11.322Z,5.11
2018-12-06T04:58:13.955Z,5.11
2018-12-06T04:59:16.602Z,5.09
2018-12-06T05:00:20.259Z,5.10
2018-12-06T05:01:25.075Z,5.13
2018-12-06T05:02:27.724Z,5.15
2018-12-06T05:03:30.313Z,5.14
2018-12-06T05:04:32.987Z,5.14
2018-12-06T05:05:35.644Z,5.13
2018-12-06T05:06:38.560Z,5.14
2018-12-06T05:07:41.205Z,5.15
2018-12-06T05:08:43.839Z,5.19
2018-12-06T05:09:46.465Z,5.18
2018-12-06T05:10:49.135Z,5.18
2018-12-06T05:11:51.740Z,5.16
2018-12-06T05:12:55.367Z,5.16
2018-12-06T05:13:58.020Z,5.17
2018-12-06T05:15:00.814Z,5.18
2018-12-06T05:16:03.483Z,5.19
2018-12-06T05:17:06.140Z,5.20
2018-12-06T05:18:08.841Z,5.21
2018-12-06T05:19:11.742Z,5.20
2018-12-06T05:20:14.325Z,5.22
2018-12-06T05:21:16.905Z,5.20
2018-12-06T05:22:19.523Z,5.21
2018-12-06T05:23:22.111Z,5.22
2018-12-06T05:24:24.795Z,5.24
2018-12-06T05:25:27.725Z,5.24
2018-12-06T05:26:30.328Z,5.24
2018-12-06T05:27:32.972Z,5.23
2018-12-06T05:28:35.678Z,5.24
2018-12-06T05:29:38.285Z,5.22
2018-12-06T05:30:41.887Z,5.22
2018-12-06T05:31:44.837Z,5.21
2018-12-06T05:32:47.414Z,5.22
2018-12-06T05:33:50.040Z,5.24
2018-12-06T05:34:52.635Z,5.27
2018-12-06T05:35:55.343Z,5.26
2018-12-06T05:36:58.280Z,5.24
2018-12-06T05:38:02.539Z,5.24
2018-12-06T05:39:05.778Z,5.25
2018-12-06T05:40:08.747Z,5.23
2018-12-06T05:41:11.393Z,5.22
2018-12-06T05:42:14.051Z,5.21
2018-12-06T05:43:16.685Z,5.23
2018-12-06T05:44:19.773Z,5.26
2018-12-06T05:45:22.384Z,5.28
2018-12-06T05:46:24.986Z,5.27
2018-12-06T05:47:27.592Z,5.27
2018-12-06T05:48:30.230Z,5.28
2018-12-06T05:49:32.869Z,5.27
2018-12-06T05:50:37.282Z,5.29
2018-12-06T05:51:40.022Z,5.30
2018-12-06T05:52:42.679Z,5.33
2018-12-06T05:53:45.286Z,5.33
2018-12-06T05:54:48.096Z,5.33
2018-12-06T05:55:50.748Z,5.27
2018-12-06T05:56:53.852Z,5.29
2018-12-06T05:57:56.507Z,5.29
2018-12-06T05:58:59.087Z,5.29
2018-12-06T06:00:01.704Z,5.31
2018-12-06T06:01:04.375Z,5.31
2018-12-06T06:02:07.028Z,5.34
2018-12-06T06:03:10.306Z,5.36
2018-12-06T06:04:12.954Z,5.40
2018-12-06T06:05:15.584Z,5.44
2018-12-06T06:06:18.240Z,5.46
2018-12-06T06:07:20.894Z,5.42
2018-12-06T06:08:23.594Z,5.38
2018-12-06T06:09:26.633Z,5.41
2018-12-06T06:10:29.297Z,5.41
2018-12-06T06:11:32.030Z,5.42
2018-12-06T06:12:34.717Z,5.43
2018-12-06T06:13:37.333Z,5.42
2018-12-06T06:14:40.006Z,5.41
2018-12-06T06:15:43.089Z,5.42
2018-12-06T06:16:45.844Z,5.43
2018-12-06T06:17:48.501Z,5.46
2018-12-06T06:18:51.332Z,5.47
2018-12-06T06:19:54.008Z,5.47
2018-12-06T06:20:56.620Z,5.48
2018-12-06T06:21:59.742Z,5.48
2018-12-06T06:23:02.350Z,5.47
2018-12-06T06:24:05.014Z,5.48
2018-12-06T06:25:07.625Z,5.48
2018-12-06T06:26:10.271Z,5.48
2018-12-06T06:27:12.945Z,5.48
2018-12-06T06:28:16.733Z,5.48
2018-12-06T06:29:19.401Z,5.51
2018-12-06T06:43:53.719Z,5.60
2018-12-06T06:44:56.830Z,5.63
2018-12-06T06:46:00.002Z,5.64
2018-12-06T06:47:02.648Z,5.64
2018-12-06T06:48:05.730Z,5.64
2018-12-06T06:49:13.875Z,5.63
2018-12-06T06:50:15.158Z,5.61
2018-12-06T06:52:28.811Z,5.63
2018-12-06T06:53:31.442Z,5.66
2018-12-06T06:54:34.125Z,5.67
2018-12-06T06:55:38.287Z,5.69
2018-12-06T06:56:41.905Z,5.68
2018-12-06T06:57:45.307Z,5.69
2018-12-06T06:58:47.969Z,5.70
2018-12-06T06:59:50.675Z,5.69
2018-12-06T07:00:53.458Z,5.68
2018-12-06T07:02:03.667Z,5.68
2018-12-06T07:03:13.492Z,5.69
2018-12-06T07:04:16.144Z,5.71
2018-12-06T07:05:18.766Z,5.71
2018-12-06T07:06:23.113Z,5.71
2018-12-06T07:07:25.742Z,5.73
2018-12-06T07:08:28.835Z,5.73
2018-12-06T07:09:32.326Z,5.73
2018-12-06T07:10:35.007Z,5.72
2018-12-06T07:11:37.611Z,5.69
2018-12-06T07:12:40.287Z,5.70
2018-12-06T07:13:43.232Z,5.72
2018-12-06T07:14:46.229Z,5.73
2018-12-06T07:15:52.082Z,5.71
2018-12-06T07:16:55.814Z,5.72
2018-12-06T07:17:58.464Z,5.72
2018-12-06T07:19:01.208Z,5.73
2018-12-06T07:20:04.837Z,5.75
2018-12-06T07:21:07.587Z,5.80
2018-12-06T07:22:10.255Z,5.84
2018-12-06T07:23:14.046Z,5.86
2018-12-06T07:24:16.632Z,5.88
2018-12-06T07:25:19.284Z,5.83
2018-12-06T07:26:22.575Z,5.82
2018-12-06T07:27:25.229Z,5.82
2018-12-06T07:28:28.008Z,5.83
2018-12-06T07:29:30.714Z,5.84
2018-12-06T07:30:33.362Z,5.86
2018-12-06T07:31:36.035Z,5.85
2018-12-06T07:32:38.984Z,5.85
2018-12-06T07:33:41.656Z,5.88
2018-12-06T07:34:44.276Z,5.91
2018-12-06T07:35:46.977Z,5.91
2018-12-06T07:36:49.641Z,5.93
2018-12-06T07:37:52.331Z,5.94
2018-12-06T07:38:55.440Z,5.96
2018-12-06T07:39:58.664Z,5.96
2018-12-06T07:41:02.110Z,5.99
2018-12-06T07:42:05.404Z,6.01
2018-12-06T07:43:08.114Z,5.98
2018-12-06T07:44:10.811Z,6.02
2018-12-06T07:45:13.930Z,6.03
2018-12-06T07:47:25.814Z,6.05
2018-12-06T07:48:28.565Z,6.11
2018-12-06T07:49:31.859Z,6.10
2018-12-06T07:50:34.498Z,6.10
2018-12-06T07:51:37.140Z,6.07
2018-12-06T07:52:39.813Z,6.06
2018-12-06T07:53:42.461Z,6.03
2018-12-06T07:54:45.097Z,6.02
2018-12-06T07:55:47.703Z,5.99
2018-12-06T07:56:51.999Z,5.99
2018-12-06T07:57:55.324Z,5.97
2018-12-06T07:58:57.995Z,5.95
2018-12-06T08:00:00.590Z,5.97
2018-12-06T08:01:03.276Z,6.08
2018-12-06T08:02:06.633Z,6.15
2018-12-06T08:03:10.705Z,6.19
2018-12-06T08:04:13.929Z,6.15
2018-12-06T08:05:16.576Z,6.13
2018-12-06T08:06:20.155Z,6.20
2018-12-06T08:07:24.370Z,6.16
2018-12-06T08:08:27.210Z,6.20
2018-12-06T08:09:30.408Z,6.17
2018-12-06T08:10:34.211Z,6.21
2018-12-06T08:11:38.678Z,6.26
2018-12-06T08:12:41.533Z,6.30
2018-12-06T08:13:44.170Z,6.37
2018-12-06T08:14:46.800Z,6.40
2018-12-06T08:15:49.796Z,6.40
2018-12-06T08:16:52.478Z,6.40
2018-12-06T08:17:55.788Z,6.36
2018-12-06T08:18:58.517Z,6.37
2018-12-06T08:20:02.599Z,6.36
2018-12-06T08:21:05.219Z,6.34
2018-12-06T08:22:08.573Z,6.37
2018-12-06T08:23:11.834Z,6.35
2018-12-06T08:24:15.117Z,6.29
2018-12-06T08:25:18.807Z,6.26
2018-12-06T08:26:21.480Z,6.31
2018-12-06T08:27:24.151Z,6.32
2018-12-06T08:28:27.591Z,6.40
2018-12-06T08:29:30.918Z,6.42
2018-12-06T08:30:34.281Z,6.45
2018-12-06T08:31:36.974Z,6.51
2018-12-06T08:32:39.770Z,6.54
2018-12-06T08:33:42.789Z,6.57
2018-12-06T08:34:45.369Z,6.58
2018-12-06T08:35:48.877Z,6.57
2018-12-06T08:36:51.721Z,6.50
2018-12-06T08:37:54.410Z,6.46
2018-12-06T08:38:57.138Z,6.42
2018-12-06T08:40:00.074Z,6.43
2018-12-06T08:41:03.266Z,6.43
2018-12-06T08:42:06.485Z,6.45
2018-12-06T08:43:09.135Z,6.43
2018-12-06T08:44:11.806Z,6.42
2018-12-06T08:45:16.125Z,6.37
2018-12-06T08:46:23.623Z,6.39
2018-12-06T08:47:26.237Z,6.41
2018-12-06T08:48:28.880Z,6.42
2018-12-06T08:49:31.618Z,6.42
2018-12-06T08:50:35.225Z,6.41
2018-12-06T08:51:38.173Z,6.40
2018-12-06T08:52:41.625Z,6.38
2018-12-06T08:53:44.214Z,6.34
2018-12-06T08:54:46.909Z,6.33
2018-12-06T08:55:50.279Z,6.37
2018-12-06T08:56:52.959Z,6.39
2018-12-06T08:57:55.635Z,6.41
2018-12-06T08:58:58.652Z,6.41
2018-12-06T09:00:01.326Z,6.38
2018-12-06T09:01:05.706Z,6.40
2018-12-06T09:02:08.450Z,6.40
2018-12-06T09:03:11.305Z,6.39
2018-12-06T09:04:14.600Z,6.39
2018-12-06T09:05:17.585Z,6.42
2018-12-06T09:06:21.363Z,6.46
2018-12-06T09:07:24.822Z,6.45
2018-12-06T09:08:27.844Z,6.47
2018-12-06T09:09:31.208Z,6.53
2018-12-06T09:10:34.893Z,6.56
2018-12-06T09:11:39.883Z,6.58
2018-12-06T09:12:50.266Z,6.55
2018-12-06T09:13:53.930Z,6.57
2018-12-06T09:14:56.817Z,6.60
2018-12-06T09:16:00.261Z,6.59
2018-12-06T09:17:02.907Z,6.55
2018-12-06T09:18:06.355Z,6.57
2018-12-06T09:19:08.968Z,6.57
2018-12-06T09:20:12.577Z,6.57
2018-12-06T09:21:15.338Z,6.54
2018-12-06T09:22:18.236Z,6.57
2018-12-06T09:23:21.033Z,6.60
2018-12-06T09:24:24.292Z,6.63
2018-12-06T09:25:27.033Z,6.63
2018-12-06T09:26:29.689Z,6.66
2018-12-06T09:27:36.256Z,6.67
2018-12-06T09:28:38.941Z,6.67
2018-12-06T09:29:41.639Z,6.66
2018-12-06T09:30:44.618Z,6.67
2018-12-06T09:31:47.343Z,6.63
2018-12-06T09:32:51.283Z,6.62
2018-12-06T09:33:54.764Z,6.61
2018-12-06T09:34:57.768Z,6.65
2018-12-06T09:36:00.392Z,6.67
2018-12-06T09:37:04.714Z,6.67
2018-12-06T09:38:07.425Z,6.67
2018-12-06T09:39:11.247Z,6.66
2018-12-06T09:40:14.720Z,6.69
2018-12-06T09:41:18.953Z,6.74
2018-12-06T09:42:21.603Z,6.77
2018-12-06T09:43:24.705Z,6.80
2018-12-06T09:44:27.455Z,6.83
2018-12-06T09:45:30.775Z,6.83
2018-12-06T09:46:35.593Z,6.83
2018-12-06T09:47:38.579Z,6.83
2018-12-06T09:48:41.630Z,6.78
2018-12-06T09:49:45.748Z,6.79
2018-12-06T09:50:50.347Z,6.78
2018-12-06T09:51:54.278Z,6.80
2018-12-06T09:52:56.973Z,6.82
2018-12-06T09:54:00.208Z,6.85
2018-12-06T09:55:04.088Z,6.88
2018-12-06T09:56:06.856Z,6.90
2018-12-06T09:57:09.729Z,6.92
2018-12-06T09:58:13.044Z,6.91
2018-12-06T09:59:15.749Z,6.91
2018-12-06T10:00:18.717Z,6.88
2018-12-06T10:01:22.321Z,6.88
2018-12-06T10:02:25.878Z,6.89
2018-12-06T10:03:29.103Z,6.90
2018-12-06T10:04:33.280Z,6.93
2018-12-06T10:05:35.887Z,6.94
2018-12-06T10:06:38.513Z,6.94
2018-12-06T10:07:42.026Z,7.01
2018-12-06T10:08:45.700Z,6.99
2018-12-06T10:09:48.356Z,6.99
2018-12-06T10:10:50.990Z,7.01
2018-12-06T10:11:53.735Z,7.05
2018-12-06T10:12:56.404Z,7.09
2018-12-06T10:13:59.976Z,7.10
2018-12-06T10:15:02.627Z,7.18
2018-12-06T10:16:06.197Z,7.21
2018-12-06T10:17:10.127Z,7.22
2018-12-06T10:18:12.918Z,7.22
2018-12-06T10:19:15.639Z,7.23
2018-12-06T10:20:19.701Z,7.23
2018-12-06T10:22:31.585Z,7.22
2018-12-06T10:23:35.015Z,7.22
2018-12-06T10:24:37.668Z,7.22
2018-12-06T10:25:40.383Z,7.24
2018-12-06T10:26:43.592Z,7.26
2018-12-06T10:27:46.991Z,7.27
2018-12-06T10:28:49.672Z,7.30
2018-12-06T10:29:52.382Z,7.34
2018-12-06T10:30:55.027Z,7.42
2018-12-06T10:31:57.658Z,7.45
2018-12-06T10:33:01.559Z,7.45
2018-12-06T10:34:05.234Z,7.47
2018-12-06T10:35:07.901Z,7.51
2018-12-06T10:36:10.671Z,7.52
2018-12-06T10:37:13.283Z,7.54
2018-12-06T10:38:18.160Z,7.57
2018-12-06T10:39:21.301Z,7.63
2018-12-06T10:40:24.538Z,7.65
2018-12-06T10:41:27.621Z,7.66
2018-12-06T10:42:31.368Z,7.64
2018-12-06T10:43:34.341Z,7.66
2018-12-06T10:44:37.156Z,7.70
2018-12-06T10:45:40.199Z,7.72
2018-12-06T10:46:43.884Z,7.74
2018-12-06T10:47:47.203Z,7.75
2018-12-06T10:48:50.306Z,7.74
2018-12-06T10:49:57.114Z,7.72
2018-12-06T10:51:00.679Z,7.82
2018-12-06T10:52:03.442Z,7.83
2018-12-06T10:53:06.479Z,7.76
2018-12-06T10:54:09.746Z,7.71
2018-12-06T10:55:12.404Z,7.69
2018-12-06T10:56:16.343Z,7.70
2018-12-06T10:57:20.227Z,7.72
2018-12-06T10:58:23.273Z,7.74
2018-12-06T10:59:25.936Z,7.78
2018-12-06T11:00:33.698Z,7.82
2018-12-06T11:01:41.535Z,7.85
2018-12-06T11:02:53.800Z,7.84
2018-12-06T11:04:01.887Z,7.88
2018-12-06T11:05:04.646Z,7.94
2018-12-06T11:06:07.322Z,7.94
2018-12-06T11:07:10.351Z,7.95
2018-12-06T11:08:13.125Z,7.96
2018-12-06T11:09:17.575Z,7.94
2018-12-06T11:10:20.215Z,7.95
2018-12-06T11:11:26.415Z,7.93
2018-12-06T11:12:29.338Z,7.94
2018-12-06T11:13:33.674Z,7.98
2018-12-06T11:14:37.889Z,7.96
2018-12-06T11:15:42.215Z,7.95
2018-12-06T11:16:45.938Z,8.00
2018-12-06T11:17:48.637Z,8.02
2018-12-06T11:18:51.882Z,8.02
2018-12-06T11:19:54.756Z,8.06
2018-12-06T11:20:58.345Z,8.09
2018-12-06T11:22:02.148Z,8.09
2018-12-06T11:23:06.908Z,8.12
2018-12-06T11:24:10.749Z,8.13
2018-12-06T11:25:13.721Z,8.15
2018-12-06T11:26:16.813Z,8.17
2018-12-06T11:27:19.551Z,8.17
2018-12-06T11:28:23.744Z,8.28
2018-12-06T11:29:27.445Z,8.45
2018-12-06T11:42:58.112Z,8.52
2018-12-06T11:44:01.813Z,8.49
2018-12-06T11:45:04.845Z,8.47
2018-12-06T11:46:08.120Z,8.49
2018-12-06T11:47:10.788Z,8.45
2018-12-06T11:48:16.134Z,8.44
2018-12-06T11:49:19.921Z,8.44
2018-12-06T11:50:22.591Z,8.49
2018-12-06T11:51:26.513Z,8.53
2018-12-06T11:52:29.211Z,8.55
2018-12-06T11:53:32.836Z,8.54
2018-12-06T11:54:36.718Z,8.53
2018-12-06T11:55:39.955Z,8.54
2018-12-06T11:56:43.643Z,8.51
2018-12-06T11:57:46.271Z,8.50
2018-12-06T11:58:49.041Z,8.51
2018-12-06T11:59:53.680Z,8.48
2018-12-06T12:00:57.409Z,8.60
2018-12-06T12:02:00.719Z,8.69
2018-12-06T12:03:03.422Z,8.72
2018-12-06T12:04:06.190Z,8.68
2018-12-06T12:05:09.367Z,8.73
2018-12-06T12:06:12.758Z,8.74
2018-12-06T12:07:15.495Z,8.77
2018-12-06T12:08:19.158Z,8.78
2018-12-06T12:09:22.917Z,8.92
2018-12-06T12:10:26.354Z,8.91
2018-12-06T12:11:32.294Z,8.90
2018-12-06T12:12:37.611Z,8.86
2018-12-06T12:13:41.063Z,8.82
2018-12-06T12:14:45.207Z,8.87
2018-12-06T12:15:48.221Z,8.91
2018-12-06T12:16:51.552Z,8.91
2018-12-06T12:17:55.682Z,8.95
2018-12-06T12:18:59.391Z,8.98
2018-12-06T12:20:05.433Z,9.01
2018-12-06T12:21:09.535Z,9.05
2018-12-06T12:22:15.229Z,9.00
2018-12-06T12:23:21.925Z,8.98
2018-12-06T12:24:26.751Z,9.03
2018-12-06T12:25:30.545Z,9.11
2018-12-06T12:26:35.984Z,9.11
2018-12-06T12:27:44.685Z,9.08
2018-12-06T12:28:47.381Z,9.17
2018-12-06T12:29:50.781Z,9.26
2018-12-06T12:30:54.232Z,9.26
2018-12-06T12:32:02.607Z,9.25
2018-12-06T12:33:08.833Z,9.24
2018-12-06T12:34:13.358Z,9.25
2018-12-06T12:35:18.808Z,9.26
2018-12-06T12:36:28.773Z,9.24
2018-12-06T12:37:33.519Z,9.24
2018-12-06T12:38:38.690Z,9.26
2018-12-06T12:39:49.269Z,9.28
2018-12-06T12:40:54.329Z,9.26
2018-12-06T12:41:58.247Z,9.27
2018-12-06T12:43:02.270Z,9.26
2018-12-06T12:44:05.966Z,9.29
2018-12-06T12:45:08.671Z,9.26
2018-12-06T12:46:12.230Z,9.24
2018-12-06T12:47:15.555Z,9.26
2018-12-06T12:48:20.202Z,9.25
2018-12-06T12:49:24.164Z,9.26
2018-12-06T12:50:27.571Z,9.21
2018-12-06T12:51:31.352Z,9.18
2018-12-06T12:52:35.342Z,9.22
2018-12-06T12:54:52.710Z,9.21
2018-12-06T12:56:03.244Z,9.20
2018-12-06T12:57:09.503Z,9.20
2018-12-06T12:58:15.398Z,9.18
2018-12-06T12:59:19.194Z,9.17
2018-12-06T13:00:25.531Z,9.19
2018-12-06T13:01:30.560Z,9.21
2018-12-06T13:02:35.746Z,9.19
2018-12-06T13:03:39.035Z,9.28
2018-12-06T13:04:43.247Z,9.28
2018-12-06T13:05:45.946Z,9.40
2018-12-06T13:07:01.130Z,9.41
2018-12-06T13:08:05.095Z,9.40
2018-12-06T13:09:07.788Z,9.40
2018-12-06T13:10:14.204Z,9.39
2018-12-06T13:11:17.072Z,9.39
2018-12-06T13:12:20.453Z,9.43
2018-12-06T13:13:23.629Z,9.45
2018-12-06T13:14:26.783Z,9.42
2018-12-06T13:15:29.913Z,9.38
2018-12-06T13:17:08.944Z,9.37
2018-12-06T13:18:12.601Z,9.39
2018-12-06T13:19:15.337Z,9.36
2018-12-06T13:20:18.645Z,9.36
2018-12-06T13:21:21.535Z,9.33
2018-12-06T13:22:26.147Z,9.33
2018-12-06T13:23:29.002Z,9.35
2018-12-06T13:24:31.715Z,9.36
2018-12-06T13:25:35.791Z,9.36
2018-12-06T13:26:42.574Z,9.37
2018-12-06T13:27:45.275Z,9.44
2018-12-06T13:28:50.003Z,9.43
2018-12-06T13:29:52.729Z,9.45
2018-12-06T13:30:55.443Z,9.47
2018-12-06T13:31:59.811Z,9.47
2018-12-06T13:33:03.688Z,9.48
2018-12-06T13:34:06.619Z,9.49
2018-12-06T13:35:11.488Z,9.55
2018-12-06T13:36:14.534Z,9.61
2018-12-06T13:37:17.268Z,9.59
2018-12-06T13:38:25.766Z,9.58
2018-12-06T13:40:57.507Z,9.51
2018-12-06T13:42:03.029Z,9.46
2018-12-06T13:43:05.794Z,9.48
2018-12-06T13:44:09.960Z,9.49
2018-12-06T13:45:15.336Z,9.53
2018-12-06T13:46:23.496Z,9.50
2018-12-06T13:47:27.682Z,9.47
2018-12-06T13:48:35.459Z,9.44
2018-12-06T13:49:42.367Z,9.43
2018-12-06T13:50:45.049Z,9.44
2018-12-06T13:52:59.691Z,9.50
2018-12-06T13:55:20.722Z,9.50
2018-12-06T13:56:24.964Z,9.52
2018-12-06T13:57:28.223Z,9.52
2018-12-06T13:58:32.236Z,9.54
2018-12-06T13:59:36.171Z,9.51
2018-12-06T14:00:38.898Z,9.53
2018-12-06T14:01:45.506Z,9.52
2018-12-06T14:04:09.040Z,9.51
2018-12-06T14:05:13.588Z,9.52
2018-12-06T14:06:19.428Z,9.54
2018-12-06T14:07:23.745Z,9.56
2018-12-06T14:08:27.477Z,9.53
2018-12-06T14:09:32.568Z,9.52
2018-12-06T14:10:36.440Z,9.53
2018-12-06T14:11:39.450Z,9.52
2018-12-06T14:12:43.400Z,9.51
2018-12-06T14:13:46.790Z,9.51
2018-12-06T14:14:50.145Z,9.50
2018-12-06T14:15:53.778Z,9.52
2018-12-06T14:16:58.036Z,9.54
2018-12-06T14:18:02.477Z,9.54
2018-12-06T14:19:05.237Z,9.55
2018-12-06T14:20:07.924Z,9.52
2018-12-06T14:21:10.595Z,9.49
2018-12-06T14:22:13.591Z,9.47
2018-12-06T14:23:17.328Z,9.46
2018-12-06T14:24:23.373Z,9.44
2018-12-06T14:25:26.423Z,9.42
2018-12-06T14:26:29.419Z,9.42
2018-12-06T14:28:44.532Z,9.39
2018-12-06T14:29:49.635Z,9.40
2018-12-06T14:30:54.533Z,9.39
2018-12-06T14:32:00.813Z,9.42
2018-12-06T14:33:07.778Z,9.43
2018-12-06T14:34:16.034Z,9.44
2018-12-06T14:35:20.361Z,9.52
2018-12-06T14:36:28.781Z,9.55
2018-12-06T14:37:32.279Z,9.56
2018-12-06T14:38:37.969Z,9.54
2018-12-06T14:39:43.838Z,9.50
2018-12-06T14:40:58.331Z,9.48